Time;durP1;ratioP1;P1;durP2;ratioP2;P2;SDS_P1;SDS_P2;PMS_P1;PMS_P2;Temp;Humidity;BMP_temperature;BMP_pressure;BME280_temperature;BME280_humidity;BME280_pressure;Samples;Min_cycle;Max_cycle;Signal;HPM_P1;HPM_P2
2022/07/03 00:01:09;;;;;;;2.08;1.05;;;;;;;;;;2092619;28;20486;-79
2022/07/03 00:02:28;;;;;;;3.17;1.30;;;;;;;;;;2091581;28;20037;-79
2022/07/03 00:03:47;;;;;;;2.28;0.82;;;;;;;;;;2090561;28;20041;-80
2022/07/03 00:05:06;;;;;;;3.50;0.90;;;;;;;;;;2092226;28;20051;-80
2022/07/03 00:06:26;;;;;;;2.05;1.20;;;;;;;;;;2092117;28;20506;-79
2022/07/03 00:07:45;;;;;;;1.23;1.10;;;;;;;;;;2091959;28;20052;-79
2022/07/03 00:09:05;;;;;;;4.03;1.13;;;;;;;;;;2090693;28;20032;-80
2022/07/03 00:10:24;;;;;;;1.77;0.90;;;;;;;;;;2091727;28;20021;-80
2022/07/03 00:11:43;;;;;;;1.88;0.88;;;;;;;;;;2090630;28;20029;-79
2022/07/03 00:13:01;;;;;;;1.33;0.90;;;;;;;;;;2090319;28;20037;-79
2022/07/03 00:14:20;;;;;;;2.42;0.95;;;;;;;;;;2092239;28;20072;-79
2022/07/03 00:15:39;;;;;;;1.65;0.93;;;;;;;;;;2092284;28;20025;-79
2022/07/03 00:16:58;;;;;;;1.52;1.10;;;;;;;;;;2086120;28;20025;-79
2022/07/03 00:18:17;;;;;;;2.65;0.93;;;;;;;;;;2090801;28;20115;-80
2022/07/03 00:19:36;;;;;;;2.17;1.38;;;;;;;;;;2088935;28;20053;-80
2022/07/03 00:20:59;;;;;;;3.75;1.05;;;;;;;;;;2086436;28;20036;-80
2022/07/03 00:22:19;;;;;;;2.42;0.95;;;;;;;;;;2089623;28;20028;-79
2022/07/03 00:23:46;;;;;;;3.15;1.10;;;;;;;;;;2088095;28;20042;-80
2022/07/03 00:25:06;;;;;;;1.25;0.93;;;;;;;;;;2085540;28;20024;-80
2022/07/03 00:26:25;;;;;;;2.38;1.05;;;;;;;;;;2093839;28;20111;-80
2022/07/03 00:27:45;;;;;;;2.20;1.20;;;;;;;;;;2084642;28;20032;-80
2022/07/03 00:29:06;;;;;;;3.67;1.30;;;;;;;;;;2084303;28;20021;-80
2022/07/03 00:30:25;;;;;;;1.67;1.20;;;;;;;;;;2088510;28;20271;-80
2022/07/03 00:31:44;;;;;;;3.17;1.10;;;;;;;;;;2087296;28;20448;-80
2022/07/03 00:33:04;;;;;;;1.33;1.23;;;;;;;;;;2089976;28;20076;-80
2022/07/03 00:34:25;;;;;;;3.08;1.25;;;;;;;;;;2091194;28;20040;-80
2022/07/03 00:35:46;;;;;;;3.42;0.90;;;;;;;;;;2087777;28;20028;-80
2022/07/03 00:37:09;;;;;;;2.88;1.00;;;;;;;;;;2087279;28;20033;-80
2022/07/03 00:38:28;;;;;;;2.55;1.42;;;;;;;;;;2089206;28;20037;-80
2022/07/03 00:39:48;;;;;;;1.40;1.00;;;;;;;;;;2088953;28;20509;-80
2022/07/03 00:41:08;;;;;;;2.30;1.10;;;;;;;;;;2090375;28;20041;-80
2022/07/03 00:42:27;;;;;;;2.17;1.10;;;;;;;;;;2089211;28;20478;-80
2022/07/03 00:43:46;;;;;;;2.58;1.30;;;;;;;;;;2086825;28;20064;-80
2022/07/03 00:45:06;;;;;;;1.85;1.00;;;;;;;;;;2089232;28;20402;-80
2022/07/03 00:46:26;;;;;;;2.72;1.30;;;;;;;;;;2093005;28;20025;-80
2022/07/03 00:47:45;;;;;;;3.70;1.30;;;;;;;;;;2089505;28;20025;-79
2022/07/03 00:49:05;;;;;;;3.35;1.50;;;;;;;;;;2088787;28;20036;-79
2022/07/03 00:50:34;;;;;;;1.35;1.02;;;;;;;;;;2091768;28;20124;-80
2022/07/03 00:51:53;;;;;;;2.75;1.13;;;;;;;;;;2091420;28;20107;-79
2022/07/03 00:53:13;;;;;;;1.65;1.42;;;;;;;;;;2091520;28;20080;-79
2022/07/03 00:54:34;;;;;;;2.78;1.20;;;;;;;;;;2088255;28;20025;-79
2022/07/03 00:55:54;;;;;;;2.03;1.10;;;;;;;;;;2091378;28;20056;-79
2022/07/03 00:57:14;;;;;;;2.08;1.05;;;;;;;;;;2090394;28;20504;-79
2022/07/03 00:58:34;;;;;;;2.85;1.40;;;;;;;;;;2091451;28;20037;-79
2022/07/03 00:59:54;;;;;;;1.80;1.30;;;;;;;;;;2086113;28;20037;-79
2022/07/03 01:01:16;;;;;;;4.05;1.30;;;;;;;;;;2091096;28;20048;-80
2022/07/03 01:02:37;;;;;;;2.25;1.40;;;;;;;;;;2087649;28;20037;-79
2022/07/03 01:04:03;;;;;;;1.27;1.13;;;;;;;;;;2088298;28;20037;-79
2022/07/03 01:05:42;;;;;;;2.20;1.27;;;;;;;;;;2087193;28;20033;-79
2022/07/03 01:07:10;;;;;;;1.75;1.17;;;;;;;;;;2090574;28;20032;-79
2022/07/03 01:08:43;;;;;;;1.95;1.33;;;;;;;;;;2091083;28;20028;-80
2022/07/03 01:10:11;;;;;;;1.27;1.17;;;;;;;;;;2090731;28;20506;-79
2022/07/03 01:11:37;;;;;;;1.90;1.02;;;;;;;;;;2088884;28;20029;-79
2022/07/03 01:13:00;;;;;;;9.50;1.33;;;;;;;;;;2092646;28;20024;-79
2022/07/03 01:14:38;;;;;;;1.95;1.33;;;;;;;;;;2089734;28;20576;-79
2022/07/03 01:16:05;;;;;;;4.32;1.23;;;;;;;;;;2088775;28;20025;-79
2022/07/03 01:17:26;;;;;;;3.70;1.30;;;;;;;;;;2090315;28;20032;-79
2022/07/03 01:18:49;;;;;;;2.60;1.30;;;;;;;;;;2089258;28;20017;-79
2022/07/03 01:20:08;;;;;;;1.55;1.20;;;;;;;;;;2089777;28;20041;-79
2022/07/03 01:21:35;;;;;;;1.90;1.10;;;;;;;;;;2091577;28;20028;-79
2022/07/03 01:22:57;;;;;;;4.43;0.90;;;;;;;;;;2090398;28;20032;-79
2022/07/03 01:24:17;;;;;;;2.47;1.27;;;;;;;;;;2085972;28;20040;-79
2022/07/03 01:25:45;;;;;;;3.35;1.20;;;;;;;;;;2086810;28;20021;-79
2022/07/03 01:27:05;;;;;;;3.58;1.70;;;;;;;;;;2088021;28;20033;-79
2022/07/03 01:28:24;;;;;;;3.00;1.30;;;;;;;;;;2091520;28;20029;-80
2022/07/03 01:29:49;;;;;;;2.88;1.08;;;;;;;;;;2086275;28;20041;-79
2022/07/03 01:31:09;;;;;;;1.13;1.00;;;;;;;;;;2091116;28;20044;-79
2022/07/03 01:32:31;;;;;;;1.25;1.15;;;;;;;;;;2098136;28;20029;-79
2022/07/03 01:33:51;;;;;;;2.00;1.13;;;;;;;;;;2088864;28;20028;-80
2022/07/03 01:35:12;;;;;;;2.05;1.20;;;;;;;;;;2087145;28;20074;-79
2022/07/03 01:36:32;;;;;;;3.92;1.23;;;;;;;;;;2087144;28;20426;-79
2022/07/03 01:37:52;;;;;;;1.40;1.10;;;;;;;;;;2092191;28;20032;-80
2022/07/03 01:39:11;;;;;;;1.77;1.00;;;;;;;;;;2089024;28;20029;-79
2022/07/03 01:40:31;;;;;;;3.13;1.30;;;;;;;;;;2091357;28;20032;-80
2022/07/03 01:41:50;;;;;;;1.90;1.40;;;;;;;;;;2085955;28;20029;-79
2022/07/03 01:43:10;;;;;;;2.10;1.08;;;;;;;;;;2087898;28;20032;-80
2022/07/03 01:44:30;;;;;;;1.77;1.10;;;;;;;;;;2088363;28;20025;-80
2022/07/03 01:45:50;;;;;;;2.67;1.38;;;;;;;;;;2089267;28;20041;-79
2022/07/03 01:47:08;;;;;;;4.20;1.10;;;;;;;;;;2089695;28;20163;-79
2022/07/03 01:48:29;;;;;;;3.25;1.10;;;;;;;;;;2090670;28;20502;-79
2022/07/03 01:49:49;;;;;;;1.10;1.10;;;;;;;;;;2089309;28;20029;-79
2022/07/03 01:51:09;;;;;;;4.30;1.33;;;;;;;;;;2090118;28;20048;-79
2022/07/03 01:52:30;;;;;;;3.72;1.58;;;;;;;;;;2090034;28;20107;-80
2022/07/03 01:53:49;;;;;;;2.03;1.10;;;;;;;;;;2090349;28;20024;-80
2022/07/03 01:55:09;;;;;;;3.47;1.10;;;;;;;;;;2088753;28;20037;-79
2022/07/03 01:56:32;;;;;;;2.33;1.17;;;;;;;;;;2089916;28;20029;-80
2022/07/03 01:57:51;;;;;;;3.67;1.20;;;;;;;;;;2089791;28;20029;-80
2022/07/03 01:59:10;;;;;;;1.40;1.30;;;;;;;;;;2083789;28;20052;-80
2022/07/03 02:00:37;;;;;;;1.77;1.08;;;;;;;;;;2087966;28;20033;-80
2022/07/03 02:01:56;;;;;;;1.45;1.10;;;;;;;;;;2090606;28;20032;-80
2022/07/03 02:03:21;;;;;;;3.58;1.20;;;;;;;;;;2091830;28;20100;-79
2022/07/03 02:04:47;;;;;;;2.67;1.02;;;;;;;;;;2087969;28;20032;-79
2022/07/03 02:06:10;;;;;;;1.30;1.20;;;;;;;;;;2088813;28;20033;-79
2022/07/03 02:07:52;;;;;;;1.40;1.30;;;;;;;;;;2092182;28;20425;-79
2022/07/03 02:09:11;;;;;;;1.20;1.00;;;;;;;;;;2094123;28;20044;-79
2022/07/03 02:10:33;;;;;;;2.10;1.30;;;;;;;;;;2094283;28;20546;-79
2022/07/03 02:11:52;;;;;;;2.60;1.40;;;;;;;;;;2091263;28;20115;-79
2022/07/03 02:13:16;;;;;;;3.40;1.30;;;;;;;;;;2089280;28;20051;-78
2022/07/03 02:14:36;;;;;;;2.38;1.20;;;;;;;;;;2088595;28;20155;-78
2022/07/03 02:15:57;;;;;;;5.55;1.40;;;;;;;;;;2087212;28;20100;-79
2022/07/03 02:17:17;;;;;;;3.97;0.90;;;;;;;;;;2086726;28;20526;-79
2022/07/03 02:18:37;;;;;;;1.05;1.00;;;;;;;;;;2086223;28;20052;-78
2022/07/03 02:19:57;;;;;;;2.45;1.48;;;;;;;;;;2091259;28;20450;-79
2022/07/03 02:21:18;;;;;;;1.92;1.40;;;;;;;;;;2090424;28;20493;-79
2022/07/03 02:22:41;;;;;;;3.45;1.20;;;;;;;;;;2092065;28;20024;-78
2022/07/03 02:24:00;;;;;;;;;;;;;;;;;;2093007;28;20028;-79
2022/07/03 02:25:21;;;;;;;2.17;1.50;;;;;;;;;;2092507;28;19905;-78
2022/07/03 02:26:40;;;;;;;1.42;1.10;;;;;;;;;;2089671;28;20512;-79
2022/07/03 02:28:02;;;;;;;3.03;1.42;;;;;;;;;;2088092;28;20028;-78
2022/07/03 02:29:28;;;;;;;2.35;1.10;;;;;;;;;;2090709;28;20119;-78
2022/07/03 02:30:49;;;;;;;4.43;1.40;;;;;;;;;;2085977;28;20029;-78
2022/07/03 02:32:11;;;;;;;1.27;1.10;;;;;;;;;;2088700;28;20044;-79
2022/07/03 02:33:31;;;;;;;4.18;1.73;;;;;;;;;;2090816;28;20025;-78
2022/07/03 02:35:10;;;;;;;2.03;1.23;;;;;;;;;;2087297;28;20025;-80
2022/07/03 02:36:31;;;;;;;2.92;1.25;;;;;;;;;;2087927;28;20530;-79
2022/07/03 02:37:55;;;;;;;1.70;1.40;;;;;;;;;;2091268;28;20163;-79
2022/07/03 02:39:19;;;;;;;3.33;1.60;;;;;;;;;;2093056;28;20029;-79
2022/07/03 02:40:41;;;;;;;2.72;1.20;;;;;;;;;;2088278;28;20052;-80
2022/07/03 02:42:02;;;;;;;1.38;1.10;;;;;;;;;;2086722;28;20056;-80
2022/07/03 02:43:27;;;;;;;1.60;1.48;;;;;;;;;;2091397;28;20075;-80
2022/07/03 02:44:50;;;;;;;3.10;1.17;;;;;;;;;;2091016;28;20037;-80
2022/07/03 02:48:12;;;;;;;3.50;1.63;;;;;;;;;;2088735;28;20683;-80
2022/07/03 02:49:31;;;;;;;2.38;1.42;;;;;;;;;;2091569;28;20045;-80
2022/07/03 02:50:52;;;;;;;2.58;1.40;;;;;;;;;;2091650;28;20040;-80
2022/07/03 02:52:21;;;;;;;1.60;1.30;;;;;;;;;;2091794;28;20033;-80
2022/07/03 02:53:52;;;;;;;3.50;1.20;;;;;;;;;;2091671;28;20398;-79
2022/07/03 02:55:11;;;;;;;3.42;1.42;;;;;;;;;;2100228;28;20045;-80
2022/07/03 02:56:33;;;;;;;2.60;1.33;;;;;;;;;;2092474;28;21106;-80
2022/07/03 02:57:57;;;;;;;1.50;1.40;;;;;;;;;;2087298;28;20037;-80
2022/07/03 02:59:16;;;;;;;2.15;1.30;;;;;;;;;;2092284;28;20425;-79
2022/07/03 03:00:37;;;;;;;4.53;1.30;;;;;;;;;;2087729;28;20045;-79
2022/07/03 03:02:17;;;;;;;2.22;1.30;;;;;;;;;;2091666;28;20394;-79
2022/07/03 03:03:37;;;;;;;1.77;1.55;;;;;;;;;;2098543;28;20029;-79
2022/07/03 03:05:05;;;;;;;1.30;1.20;;;;;;;;;;2090847;28;20029;-79
2022/07/03 03:06:26;;;;;;;3.75;1.80;;;;;;;;;;2089791;28;20033;-79
2022/07/03 03:07:49;;;;;;;3.45;1.40;;;;;;;;;;2083136;28;20049;-79
2022/07/03 03:09:14;;;;;;;2.85;1.40;;;;;;;;;;2087143;28;20398;-78
2022/07/03 03:10:34;;;;;;;3.97;1.65;;;;;;;;;;2090783;28;20025;-78
2022/07/03 03:11:56;;;;;;;3.58;1.40;;;;;;;;;;2089618;28;20025;-79
2022/07/03 03:13:16;;;;;;;2.22;1.48;;;;;;;;;;2088922;28;20064;-79
2022/07/03 03:14:43;;;;;;;1.58;1.05;;;;;;;;;;2089826;28;20572;-79
2022/07/03 03:16:09;;;;;;;2.17;1.40;;;;;;;;;;2091475;28;20033;-79
2022/07/03 03:17:29;;;;;;;1.52;1.30;;;;;;;;;;2091856;28;20402;-79
2022/07/03 03:18:48;;;;;;;2.17;1.40;;;;;;;;;;2090077;28;20021;-79
2022/07/03 03:20:08;;;;;;;5.80;1.75;;;;;;;;;;2091968;28;20045;-79
2022/07/03 03:21:31;;;;;;;4.55;2.10;;;;;;;;;;2091307;28;20025;-79
2022/07/03 03:22:58;;;;;;;3.38;1.92;;;;;;;;;;2089854;28;20028;-80
2022/07/03 03:24:18;;;;;;;1.50;1.40;;;;;;;;;;2091770;28;20024;-79
2022/07/03 03:25:38;;;;;;;1.88;1.50;;;;;;;;;;2089968;28;20024;-79
2022/07/03 03:26:57;;;;;;;1.50;1.40;;;;;;;;;;2090272;28;20029;-80
2022/07/03 03:28:16;;;;;;;2.92;1.48;;;;;;;;;;2085094;28;20048;-79
2022/07/03 03:29:35;;;;;;;1.20;1.10;;;;;;;;;;2093157;28;20032;-80
2022/07/03 03:30:55;;;;;;;3.08;1.40;;;;;;;;;;2090925;28;20029;-79
2022/07/03 03:32:15;;;;;;;4.10;1.40;;;;;;;;;;2088848;28;20457;-80
2022/07/03 03:33:44;;;;;;;2.17;1.23;;;;;;;;;;2090413;28;20440;-79
2022/07/03 03:35:03;;;;;;;2.65;1.40;;;;;;;;;;2089748;28;20056;-80
2022/07/03 03:36:22;;;;;;;6.28;1.40;;;;;;;;;;2088334;28;20505;-79
2022/07/03 03:37:41;;;;;;;2.25;1.35;;;;;;;;;;2090602;28;20676;-79
2022/07/03 03:39:00;;;;;;;1.40;1.25;;;;;;;;;;2092815;28;20033;-79
2022/07/03 03:40:19;;;;;;;2.33;1.23;;;;;;;;;;2089920;28;20028;-79
2022/07/03 03:41:38;;;;;;;4.10;1.40;;;;;;;;;;2090074;28;20025;-79
2022/07/03 03:42:57;;;;;;;2.28;1.33;;;;;;;;;;2092041;28;20025;-79
2022/07/03 03:44:16;;;;;;;2.20;1.27;;;;;;;;;;2090337;28;20029;-79
2022/07/03 03:45:35;;;;;;;2.03;1.40;;;;;;;;;;2091776;28;20025;-79
2022/07/03 03:46:54;;;;;;;2.40;1.10;;;;;;;;;;2089288;28;20116;-79
2022/07/03 03:48:13;;;;;;;1.77;1.25;;;;;;;;;;2090447;28;20037;-79
2022/07/03 03:49:33;;;;;;;4.93;1.55;;;;;;;;;;2092266;28;20021;-79
2022/07/03 03:50:52;;;;;;;2.05;1.23;;;;;;;;;;2089589;28;20030;-79
2022/07/03 03:52:11;;;;;;;3.70;1.50;;;;;;;;;;2087549;28;20029;-79
2022/07/03 03:53:30;;;;;;;1.30;1.20;;;;;;;;;;2084128;28;20485;-79
2022/07/03 03:54:49;;;;;;;1.73;1.40;;;;;;;;;;2084487;28;20418;-79
2022/07/03 03:56:10;;;;;;;1.30;1.13;;;;;;;;;;2091487;28;20386;-79
2022/07/03 03:57:29;;;;;;;2.65;1.48;;;;;;;;;;2090851;28;20037;-79
2022/07/03 03:58:47;;;;;;;2.80;1.65;;;;;;;;;;2086021;28;20088;-79
2022/07/03 04:00:07;;;;;;;4.75;1.63;;;;;;;;;;2089177;28;20108;-79
2022/07/03 04:01:25;;;;;;;4.18;1.42;;;;;;;;;;2090950;28;20033;-79
2022/07/03 04:02:44;;;;;;;2.42;1.38;;;;;;;;;;2087978;28;20040;-79
2022/07/03 04:04:03;;;;;;;7.18;1.73;;;;;;;;;;2092298;28;20037;-79
2022/07/03 04:05:22;;;;;;;2.45;1.42;;;;;;;;;;2089361;28;20032;-79
2022/07/03 04:06:41;;;;;;;4.13;1.40;;;;;;;;;;2091286;28;20029;-79
2022/07/03 04:08:00;;;;;;;3.92;1.48;;;;;;;;;;2092086;28;20434;-79
2022/07/03 04:09:22;;;;;;;2.35;1.40;;;;;;;;;;2091749;28;20060;-79
2022/07/03 04:10:41;;;;;;;2.15;1.20;;;;;;;;;;2090377;28;20017;-79
2022/07/03 04:12:00;;;;;;;2.25;1.30;;;;;;;;;;2091632;28;20025;-79
2022/07/03 04:13:19;;;;;;;5.45;1.50;;;;;;;;;;2088485;28;20112;-79
2022/07/03 04:14:38;;;;;;;4.93;1.85;;;;;;;;;;2088673;28;20427;-79
2022/07/03 04:15:57;;;;;;;2.95;1.30;;;;;;;;;;2091331;28;20033;-79
2022/07/03 04:17:17;;;;;;;3.50;1.95;;;;;;;;;;2090295;28;20037;-79
2022/07/03 04:18:36;;;;;;;2.35;1.35;;;;;;;;;;2088871;28;20033;-79
2022/07/03 04:19:55;;;;;;;1.75;1.15;;;;;;;;;;2091112;28;20044;-79
2022/07/03 04:21:14;;;;;;;1.95;1.30;;;;;;;;;;2090016;28;20041;-79
2022/07/03 04:22:32;;;;;;;3.28;1.60;;;;;;;;;;2085399;28;20033;-79
2022/07/03 04:23:51;;;;;;;2.42;1.42;;;;;;;;;;2087301;28;20025;-79
2022/07/03 04:25:10;;;;;;;4.75;1.67;;;;;;;;;;2084675;28;20044;-80
2022/07/03 04:26:29;;;;;;;1.75;1.52;;;;;;;;;;2092010;28;20475;-80
2022/07/03 04:27:48;;;;;;;2.55;1.30;;;;;;;;;;2091382;28;20506;-80
2022/07/03 04:29:07;;;;;;;1.88;1.20;;;;;;;;;;2089630;28;20032;-80
2022/07/03 04:30:26;;;;;;;4.07;1.30;;;;;;;;;;2088935;28;20036;-80
2022/07/03 04:31:44;;;;;;;3.78;1.50;;;;;;;;;;2089992;28;20037;-80
2022/07/03 04:33:03;;;;;;;1.38;1.27;;;;;;;;;;2086144;28;20491;-80
2022/07/03 04:34:22;;;;;;;1.80;1.20;;;;;;;;;;2092033;28;20064;-80
2022/07/03 04:35:41;;;;;;;3.08;1.17;;;;;;;;;;2090731;28;20032;-80
2022/07/03 04:37:00;;;;;;;3.00;1.13;;;;;;;;;;2090051;28;20032;-80
2022/07/03 04:38:19;;;;;;;2.75;1.30;;;;;;;;;;2089261;28;20052;-79
2022/07/03 04:39:38;;;;;;;1.23;1.05;;;;;;;;;;2089748;28;20033;-80
2022/07/03 04:40:57;;;;;;;5.53;1.60;;;;;;;;;;2088676;28;20103;-80
2022/07/03 04:42:16;;;;;;;3.72;1.25;;;;;;;;;;2090448;28;20029;-80
2022/07/03 04:43:36;;;;;;;4.05;1.55;;;;;;;;;;2091271;28;20079;-80
2022/07/03 04:44:55;;;;;;;2.78;1.30;;;;;;;;;;2090028;28;20502;-80
2022/07/03 04:46:14;;;;;;;1.95;1.25;;;;;;;;;;2091841;28;20045;-80
2022/07/03 04:47:33;;;;;;;2.70;1.30;;;;;;;;;;2087175;28;20116;-80
2022/07/03 04:48:52;;;;;;;3.38;1.00;;;;;;;;;;2088918;28;20033;-80
2022/07/03 04:50:11;;;;;;;1.52;1.00;;;;;;;;;;2090800;28;20428;-80
2022/07/03 04:51:29;;;;;;;1.75;1.13;;;;;;;;;;2092076;28;20024;-81
2022/07/03 04:52:48;;;;;;;3.30;1.50;;;;;;;;;;2088810;28;20091;-80
2022/07/03 04:54:07;;;;;;;2.33;1.77;;;;;;;;;;2088502;28;20505;-80
2022/07/03 04:55:26;;;;;;;3.03;1.30;;;;;;;;;;2090760;28;20029;-80
2022/07/03 04:56:45;;;;;;;3.22;1.05;;;;;;;;;;2089113;28;20036;-80
2022/07/03 04:58:03;;;;;;;6.20;1.30;;;;;;;;;;2089604;28;20114;-80
2022/07/03 04:59:22;;;;;;;4.35;1.25;;;;;;;;;;2089704;28;20037;-80
2022/07/03 05:00:43;;;;;;;2.17;1.20;;;;;;;;;;2087709;28;20037;-80
2022/07/03 05:02:03;;;;;;;2.35;1.20;;;;;;;;;;2091108;28;20489;-80
2022/07/03 05:03:22;;;;;;;3.60;1.10;;;;;;;;;;2086909;28;20505;-80
2022/07/03 05:04:41;;;;;;;2.78;1.33;;;;;;;;;;2085780;28;20056;-80
2022/07/03 05:06:01;;;;;;;3.45;1.08;;;;;;;;;;2085943;28;20037;-80
2022/07/03 05:07:20;;;;;;;2.50;1.13;;;;;;;;;;2085669;28;20017;-80
2022/07/03 05:08:39;;;;;;;2.80;1.55;;;;;;;;;;2088420;28;20155;-80
2022/07/03 05:09:58;;;;;;;1.98;0.98;;;;;;;;;;2087366;28;20029;-81
2022/07/03 05:11:17;;;;;;;2.03;1.10;;;;;;;;;;2089092;28;20025;-81
2022/07/03 05:12:36;;;;;;;1.58;1.20;;;;;;;;;;2091372;28;20111;-81
2022/07/03 05:13:55;;;;;;;1.55;1.10;;;;;;;;;;2088374;28;20487;-81
2022/07/03 05:15:13;;;;;;;2.30;1.30;;;;;;;;;;2087840;28;20033;-81
2022/07/03 05:16:32;;;;;;;2.40;0.70;;;;;;;;;;2086945;28;20033;-80
2022/07/03 05:17:51;;;;;;;1.58;1.13;;;;;;;;;;2092283;28;20025;-81
2022/07/03 05:19:10;;;;;;;2.65;1.20;;;;;;;;;;2090427;28;20506;-80
2022/07/03 05:20:29;;;;;;;1.80;1.13;;;;;;;;;;2091154;28;20474;-80
2022/07/03 05:21:48;;;;;;;3.17;1.15;;;;;;;;;;2090241;28;20025;-80
2022/07/03 05:23:07;;;;;;;5.28;0.98;;;;;;;;;;2088378;28;20029;-81
2022/07/03 05:24:25;;;;;;;2.47;0.82;;;;;;;;;;2090576;28;20402;-79
2022/07/03 05:25:45;;;;;;;1.50;0.90;;;;;;;;;;2091303;28;20399;-80
2022/07/03 05:27:04;;;;;;;6.72;1.33;;;;;;;;;;2087835;28;20123;-80
2022/07/03 05:28:23;;;;;;;2.20;0.98;;;;;;;;;;2086956;28;20951;-80
2022/07/03 05:29:42;;;;;;;1.17;0.93;;;;;;;;;;2090217;28;20025;-80
2022/07/03 05:31:01;;;;;;;2.25;1.35;;;;;;;;;;2085136;28;20025;-80
2022/07/03 05:32:20;;;;;;;3.08;1.10;;;;;;;;;;2089263;28;20478;-80
2022/07/03 05:33:39;;;;;;;2.42;1.15;;;;;;;;;;2089174;28;20037;-80
2022/07/03 05:34:57;;;;;;;2.47;1.00;;;;;;;;;;2086122;28;20108;-79
2022/07/03 05:36:16;;;;;;;3.33;1.25;;;;;;;;;;2090108;28;20029;-79
2022/07/03 05:37:35;;;;;;;4.88;1.10;;;;;;;;;;2088546;28;20040;-80
2022/07/03 05:40:32;;;;;;;2.00;1.00;;;;;;;;;;2088544;28;20340;-79
2022/07/03 05:41:51;;;;;;;4.20;1.20;;;;;;;;;;2090120;28;20111;-79
2022/07/03 05:43:10;;;;;;;2.17;1.10;;;;;;;;;;2087984;28;20045;-80
2022/07/03 05:44:29;;;;;;;2.15;1.05;;;;;;;;;;2087544;28;20455;-79
2022/07/03 05:45:48;;;;;;;1.38;1.05;;;;;;;;;;2090735;28;20486;-79
2022/07/03 05:47:07;;;;;;;2.08;1.05;;;;;;;;;;2088145;28;20036;-81
2022/07/03 05:48:26;;;;;;;2.08;1.13;;;;;;;;;;2085373;28;20033;-80
2022/07/03 05:49:45;;;;;;;3.42;1.10;;;;;;;;;;2088674;28;20024;-80
2022/07/03 05:51:04;;;;;;;2.85;1.15;;;;;;;;;;2088654;28;20558;-80
2022/07/03 05:52:23;;;;;;;3.53;1.17;;;;;;;;;;2091319;28;20025;-79
2022/07/03 05:53:41;;;;;;;1.95;1.33;;;;;;;;;;2087850;28;20036;-80
2022/07/03 05:55:00;;;;;;;3.30;1.58;;;;;;;;;;2089293;28;20033;-80
2022/07/03 05:56:19;;;;;;;2.80;1.08;;;;;;;;;;2085643;28;20029;-79
2022/07/03 05:57:38;;;;;;;3.47;0.90;;;;;;;;;;2088353;28;20563;-79
2022/07/03 05:58:56;;;;;;;2.97;1.20;;;;;;;;;;2088426;28;20057;-79
2022/07/03 06:00:15;;;;;;;1.90;1.17;;;;;;;;;;2087536;28;20033;-80
2022/07/03 06:01:35;;;;;;;1.15;1.05;;;;;;;;;;2090935;28;20541;-80
2022/07/03 06:02:54;;;;;;;2.85;1.00;;;;;;;;;;2088435;28;20041;-80
2022/07/03 06:04:13;;;;;;;1.60;1.20;;;;;;;;;;2089658;28;20033;-80
2022/07/03 06:05:32;;;;;;;2.33;1.00;;;;;;;;;;2091183;28;20029;-80
2022/07/03 06:06:51;;;;;;;1.83;1.00;;;;;;;;;;2087997;28;20033;-80
2022/07/03 06:08:10;;;;;;;2.53;1.17;;;;;;;;;;2086909;28;20080;-80
2022/07/03 06:09:29;;;;;;;2.33;0.90;;;;;;;;;;2086633;28;20117;-81
2022/07/03 06:10:48;;;;;;;1.92;1.10;;;;;;;;;;2087263;28;20033;-80
2022/07/03 06:12:07;;;;;;;2.22;1.00;;;;;;;;;;2087733;28;20036;-80
2022/07/03 06:13:26;;;;;;;1.20;0.90;;;;;;;;;;2093849;28;20122;-81
2022/07/03 06:14:45;;;;;;;1.50;0.80;;;;;;;;;;2091422;28;20903;-81
2022/07/03 06:16:04;;;;;;;2.95;1.05;;;;;;;;;;2092655;28;20466;-81
2022/07/03 06:17:23;;;;;;;3.80;0.95;;;;;;;;;;2090642;28;20037;-80
2022/07/03 06:18:42;;;;;;;2.10;0.88;;;;;;;;;;2089541;28;20025;-82
2022/07/03 06:20:04;;;;;;;1.48;0.95;;;;;;;;;;2092881;28;20910;-62
2022/07/03 06:21:23;;;;;;;1.42;1.00;;;;;;;;;;2090364;28;20041;-62
2022/07/03 06:22:42;;;;;;;5.60;1.00;;;;;;;;;;2092553;28;20025;-63
2022/07/03 06:24:01;;;;;;;3.03;1.10;;;;;;;;;;2093778;28;20071;-63
2022/07/03 06:25:20;;;;;;;1.45;0.80;;;;;;;;;;2090669;28;20440;-64
2022/07/03 06:26:39;;;;;;;2.78;0.95;;;;;;;;;;2090150;28;20429;-62
2022/07/03 06:27:58;;;;;;;1.55;0.90;;;;;;;;;;2090538;28;20427;-63
2022/07/03 06:29:17;;;;;;;1.67;0.98;;;;;;;;;;2089039;28;20040;-63
2022/07/03 06:30:36;;;;;;;1.00;0.88;;;;;;;;;;2093633;28;20061;-63
2022/07/03 06:31:54;;;;;;;1.73;0.80;;;;;;;;;;2090427;28;20033;-63
2022/07/03 06:33:13;;;;;;;2.78;0.82;;;;;;;;;;2093745;28;21843;-64
2022/07/03 06:34:33;;;;;;;2.38;0.85;;;;;;;;;;2092542;28;20841;-64
2022/07/03 06:35:54;;;;;;;2.40;0.85;;;;;;;;;;2089405;28;20075;-64
2022/07/03 06:37:13;;;;;;;1.98;0.82;;;;;;;;;;2089406;28;20033;-63
2022/07/03 06:38:32;;;;;;;1.63;1.10;;;;;;;;;;2092029;28;20017;-63
2022/07/03 06:39:51;;;;;;;8.18;1.20;;;;;;;;;;2090805;28;20473;-63
2022/07/03 06:41:10;;;;;;;3.33;1.42;;;;;;;;;;2089395;28;20060;-64
2022/07/03 06:42:29;;;;;;;2.38;1.00;;;;;;;;;;2093299;28;20036;-64
2022/07/03 06:43:48;;;;;;;3.97;1.15;;;;;;;;;;2090593;28;20025;-62
2022/07/03 06:45:07;;;;;;;3.38;1.00;;;;;;;;;;2088340;28;20060;-65
2022/07/03 06:46:25;;;;;;;1.25;0.75;;;;;;;;;;2093934;28;20033;-63
2022/07/03 06:47:44;;;;;;;2.25;0.70;;;;;;;;;;2091843;28;20497;-63
2022/07/03 06:49:03;;;;;;;2.92;1.08;;;;;;;;;;2092434;28;20112;-62
2022/07/03 06:50:22;;;;;;;2.05;1.02;;;;;;;;;;2091333;28;20104;-64
2022/07/03 06:51:41;;;;;;;2.20;0.98;;;;;;;;;;2089509;28;20025;-64
2022/07/03 06:53:00;;;;;;;1.70;0.70;;;;;;;;;;2091865;28;20353;-62
2022/07/03 06:54:19;;;;;;;4.47;1.15;;;;;;;;;;2089375;28;20053;-62
2022/07/03 06:55:38;;;;;;;3.00;1.27;;;;;;;;;;2086846;28;20029;-63
2022/07/03 06:56:57;;;;;;;6.90;1.40;;;;;;;;;;2090205;28;20037;-63
2022/07/03 06:58:16;;;;;;;3.97;1.10;;;;;;;;;;2087125;28;20385;-63
2022/07/03 06:59:35;;;;;;;6.22;0.77;;;;;;;;;;2094229;28;20029;-64
2022/07/03 07:00:54;;;;;;;4.93;1.10;;;;;;;;;;2092078;28;20104;-63
2022/07/03 07:02:13;;;;;;;1.05;0.63;;;;;;;;;;2088093;28;20032;-64
2022/07/03 07:03:32;;;;;;;3.05;0.70;;;;;;;;;;2094736;28;20021;-62
2022/07/03 07:04:51;;;;;;;2.08;0.80;;;;;;;;;;2089763;28;20143;-64
2022/07/03 07:06:13;;;;;;;1.67;0.80;;;;;;;;;;2092775;28;20029;-62
2022/07/03 07:07:32;;;;;;;3.50;0.95;;;;;;;;;;2093050;28;20509;-62
2022/07/03 07:08:51;;;;;;;3.20;1.00;;;;;;;;;;2093421;28;20064;-61
2022/07/03 07:10:13;;;;;;;2.13;1.00;;;;;;;;;;2092136;28;20577;-62
2022/07/03 07:11:32;;;;;;;5.18;1.10;;;;;;;;;;2089183;28;20179;-62
2022/07/03 07:12:51;;;;;;;3.70;1.08;;;;;;;;;;2090613;28;20037;-62
2022/07/03 07:14:10;;;;;;;6.72;0.80;;;;;;;;;;2093743;28;20033;-62
2022/07/03 07:15:29;;;;;;;2.17;0.85;;;;;;;;;;2088797;28;20477;-63
2022/07/03 07:16:48;;;;;;;1.85;0.60;;;;;;;;;;2089043;28;20045;-62
2022/07/03 07:18:07;;;;;;;1.83;0.77;;;;;;;;;;2092641;28;20033;-62
2022/07/03 07:19:26;;;;;;;2.22;0.75;;;;;;;;;;2092182;28;20510;-63
2022/07/03 07:20:45;;;;;;;2.90;0.70;;;;;;;;;;2092423;28;20108;-63
2022/07/03 07:22:04;;;;;;;4.10;1.30;;;;;;;;;;2087067;28;20482;-63
2022/07/03 07:23:23;;;;;;;3.25;0.77;;;;;;;;;;2088341;28;20112;-62
2022/07/03 07:24:42;;;;;;;1.42;0.77;;;;;;;;;;2091766;28;20017;-63
2022/07/03 07:26:01;;;;;;;1.67;0.73;;;;;;;;;;2087418;28;20029;-63
2022/07/03 07:27:19;;;;;;;4.57;1.17;;;;;;;;;;2092634;28;20041;-62
2022/07/03 07:28:38;;;;;;;4.13;1.08;;;;;;;;;;2087132;28;20386;-63
2022/07/03 07:29:58;;;;;;;1.80;0.73;;;;;;;;;;2095723;28;20112;-63
2022/07/03 07:31:16;;;;;;;2.15;0.80;;;;;;;;;;2086303;28;20049;-65
2022/07/03 07:32:36;;;;;;;1.27;0.70;;;;;;;;;;2083700;28;20037;-63
2022/07/03 07:33:55;;;;;;;2.95;1.00;;;;;;;;;;2088706;28;20029;-63
2022/07/03 07:35:14;;;;;;;3.05;0.98;;;;;;;;;;2087272;28;20041;-63
2022/07/03 07:36:33;;;;;;;2.10;0.80;;;;;;;;;;2082830;28;20069;-63
2022/07/03 07:37:52;;;;;;;0.75;0.65;;;;;;;;;;2084912;28;20030;-65
2022/07/03 07:39:11;;;;;;;1.10;0.68;;;;;;;;;;2086050;28;20036;-63
2022/07/03 07:40:30;;;;;;;0.98;0.75;;;;;;;;;;2081704;28;20595;-63
2022/07/03 07:41:49;;;;;;;2.42;0.90;;;;;;;;;;2083475;28;20026;-63
2022/07/03 07:43:07;;;;;;;3.03;0.93;;;;;;;;;;2086098;28;20033;-62
2022/07/03 07:44:26;;;;;;;1.92;0.70;;;;;;;;;;2087206;28;20036;-62
2022/07/03 07:45:45;;;;;;;3.17;1.05;;;;;;;;;;2086671;28;20659;-62
2022/07/03 07:47:04;;;;;;;3.50;0.98;;;;;;;;;;2087280;28;20682;-62
2022/07/03 07:48:23;;;;;;;2.42;1.05;;;;;;;;;;2085082;28;20025;-62
2022/07/03 07:49:42;;;;;;;3.10;1.17;;;;;;;;;;2085423;28;20033;-63
2022/07/03 07:51:01;;;;;;;1.10;0.73;;;;;;;;;;2086139;28;20040;-62
2022/07/03 07:52:20;;;;;;;2.60;0.70;;;;;;;;;;2086921;28;20037;-62
2022/07/03 07:53:39;;;;;;;4.35;0.77;;;;;;;;;;2087414;28;20094;-62
2022/07/03 07:54:58;;;;;;;1.45;0.80;;;;;;;;;;2089182;28;20478;-62
2022/07/03 07:56:17;;;;;;;3.30;0.90;;;;;;;;;;2086785;28;20057;-63
2022/07/03 07:57:37;;;;;;;2.40;0.90;;;;;;;;;;2086593;28;20029;-63
2022/07/03 07:58:55;;;;;;;7.03;0.90;;;;;;;;;;2087173;28;20769;-62
2022/07/03 08:00:16;;;;;;;4.43;0.70;;;;;;;;;;2086116;28;20044;-62
2022/07/03 08:05:37;;;;;;;1.58;0.70;;;;;;;;;;2087745;28;20077;-63
2022/07/03 08:06:30;;;;;;;1.38;0.63;;;;;;;;;;2083498;28;20034;-63
2022/07/03 08:07:49;;;;;;;3.55;0.75;;;;;;;;;;2085167;28;20021;-63
2022/07/03 08:09:08;;;;;;;1.88;0.77;;;;;;;;;;2085082;28;20112;-63